Nome, AK (99762)

7:58 AM AKDT on July 24, 2016 (GMT -0800)
NOS_NWLON | | Change Station

Elev 0 ft 64.50 °N, 165.43 °W | Updated 46 minutes ago

Scattered Clouds
Scattered Clouds
52 °F
Feels Like 52 °F
N
Wind Variable Wind from North
Gusts 0.0 mph

Today
High -- | Low -- °F
--% Chance of Precip.
Yesterday
High -- | Low -- °F
Precip. -- in
Pressure 29.70 in
Visibility 10.0 miles
Clouds Scattered Clouds 8000 ft
Dew Point Not available.
Humidity Not available.
Rainfall in
Snow Depth Not available.
5:40 AM 0:32 AM
Waning Gibbous, 75% visible
METAR PAOM 241553Z 00000KT 10SM SCT080 09/08 A2969 RMK AO2 SLP055 T00940083
Pressure 29.70 in
Visibility 10.0 miles
Clouds Scattered Clouds 8000 ft
Dew Point Not available.
Humidity Not available.
Rainfall in
Snow Depth Not available.
5:40 AM 0:32 AM
Waning Gibbous, 75% visible
METAR PAOM 241553Z 00000KT 10SM SCT080 09/08 A2969 RMK AO2 SLP055 T00940083

10-Day Weather Forecast

Almanac

Astronomy

Jul. 24, 2016 Rise Set
Actual Time
Civil Twilight
Nautical Twilight
Astronomical Twilight
Moon
Length of Visible Light
Length of Day
Tomorrow will be .
, % of the Moon is Illuminated

Today's Extremes

State Highs State Lows

Community

WunderPhotos

Upload Photos

1,927,092 photos uploaded!

WunderBlog® & News

Nearby

Air Quality

  Air Quality AQ Index Pollutant
Not available.

Snow Depth

Station Depth Elevation

Earthquake Activity

City Distance Mag. Time & Date
Minimum magnitude displayed is 2.5.

Coastal Water Temperatures

Place Temperature

Stations

Nearby Weather Stations

Station Location Temp. Windchill Dew Point Humidity Wind Precip. Elev Updated Type
                   

Watches & Warnings

There are currently no watches in effect.